Gornji Humac, Croatia
Current Conditions -  °F | °C
As of 8:00 PM on Friday 21 Nov 2014 (Local Time) from LDSP Reporting Station
Clear Clear  
Wind Chill: 12°   Ceiling: Unl
Heat Index: 12°   Visibility: 6mi
Dew Point:   Wind: 7mph
Humidity: 62%   Direction: 310°NW
Pressure: 30.21"   Gusts: NA
Location:  43.29°N, 16.71°E
Report Text: LDSP 211800Z 31006KT 270V010 CAVOK 12/05 Q1023 NOSIG
Loading
Personal Weather Stations






























Interactive Weather Map New forecast layout! Learn more

10-Day Weather Forecast

Advertisements
Track Severe Weather on mobile